Time;durP1;ratioP1;P1;durP2;ratioP2;P2;SDS_P1;SDS_P2;PMS_P1;PMS_P2;Temp;Humidity;BMP_temperature;BMP_pressure;BME280_temperature;BME280_humidity;BME280_pressure;Samples;Min_cycle;Max_cycle;Signal;HPM_P1;HPM_P2
2022/03/20 00:01:29;;;;;;;19.57;11.13;;;;;7.50;102833.00;;;;5091730;28;20230;-67
2022/03/20 00:04:15;;;;;;;18.17;10.00;;;;;7.30;102828.00;;;;5103194;28;20226;-68
2022/03/20 00:07:01;;;;;;;18.40;10.43;;;;;7.40;102830.00;;;;5101396;28;20316;-70
2022/03/20 00:09:52;;;;;;;19.33;11.07;;;;;7.20;102826.00;;;;5101890;28;20319;-68
2022/03/20 00:12:38;;;;;;;19.93;11.27;;;;;7.30;102808.00;;;;5104926;28;20222;-67
2022/03/20 00:15:24;;;;;;;21.60;11.43;;;;;7.20;102807.00;;;;5099810;28;20272;-68
2022/03/20 00:18:12;;;;;;;18.10;11.13;;;;;7.10;102803.00;;;;5096702;28;20223;-67
2022/03/20 00:21:01;;;;;;;18.47;10.30;;;;;7.10;102800.00;;;;5103894;28;20307;-67
2022/03/20 00:23:47;;;;;;;22.17;11.77;;;;;7.00;102796.00;;;;5091801;28;20226;-69
2022/03/20 00:26:39;;;;;;;22.27;10.93;;;;;7.00;102803.00;;;;5089671;28;20225;-67
2022/03/20 00:29:25;;;;;;;18.70;9.90;;;;;7.00;102790.00;;;;5103543;28;20227;-68
2022/03/20 00:32:13;;;;;;;21.47;11.90;;;;;6.90;102792.00;;;;5101573;28;20349;-67
2022/03/20 00:35:00;;;;;;;20.57;11.37;;;;;6.80;102796.00;;;;5103583;28;20245;-68
2022/03/20 00:37:47;;;;;;;20.80;11.03;;;;;6.90;102777.00;;;;5091147;28;20764;-68
2022/03/20 00:40:33;;;;;;;21.20;11.20;;;;;6.90;102785.00;;;;5087059;28;20229;-68
2022/03/20 00:43:21;;;;;;;20.20;10.93;;;;;6.70;102776.00;;;;5095171;28;20234;-67
2022/03/20 00:46:09;;;;;;;24.07;11.53;;;;;6.60;102775.00;;;;5089944;28;20347;-68
2022/03/20 00:48:55;;;;;;;17.67;11.40;;;;;6.50;102759.00;;;;5103220;28;20361;-67
2022/03/20 00:51:41;;;;;;;23.17;11.40;;;;;6.60;102761.00;;;;5103750;28;20345;-67
2022/03/20 00:54:28;;;;;;;24.73;11.67;;;;;6.60;102756.00;;;;5095949;28;20235;-68
2022/03/20 00:57:14;;;;;;;24.20;12.33;;;;;6.40;102727.00;;;;5104278;28;20238;-70
2022/03/20 01:00:02;;;;;;;17.80;10.03;;;;;6.30;102741.00;;;;5103648;28;20229;-67
2022/03/20 01:02:49;;;;;;;21.67;11.77;;;;;6.40;102733.00;;;;5094732;28;20238;-68
2022/03/20 01:05:36;;;;;;;23.60;12.00;;;;;6.40;102738.00;;;;5089681;28;20752;-66
2022/03/20 01:08:23;;;;;;;22.13;11.63;;;;;6.50;102741.00;;;;5104034;28;20229;-69
2022/03/20 01:11:09;;;;;;;20.60;11.30;;;;;6.40;102731.00;;;;5101326;28;20301;-69
2022/03/20 01:13:56;;;;;;;22.13;10.90;;;;;6.30;102730.00;;;;5104381;28;20237;-67
2022/03/20 01:16:43;;;;;;;23.63;11.87;;;;;6.40;102718.00;;;;5095614;28;20935;-68
2022/03/20 01:19:30;;;;;;;23.03;11.57;;;;;6.30;102725.00;;;;5097794;28;20287;-69
2022/03/20 01:22:17;;;;;;;19.03;11.13;;;;;6.30;102724.00;;;;5102098;28;20593;-69
2022/03/20 01:25:05;;;;;;;24.83;12.00;;;;;6.30;102719.00;;;;5102529;28;20689;-66
2022/03/20 01:27:51;;;;;;;25.20;11.80;;;;;6.20;102713.00;;;;5093979;28;20226;-67
2022/03/20 01:30:38;;;;;;;21.93;11.13;;;;;6.30;102714.00;;;;5091958;28;20795;-68
2022/03/20 01:33:25;;;;;;;21.97;12.47;;;;;6.20;102707.00;;;;5103881;28;20688;-68
2022/03/20 01:36:12;;;;;;;22.70;11.37;;;;;6.20;102706.00;;;;5087667;28;20236;-67
2022/03/20 01:38:58;;;;;;;22.10;12.37;;;;;6.20;102699.00;;;;5088994;28;20231;-68
2022/03/20 01:41:46;;;;;;;26.30;13.10;;;;;6.20;102694.00;;;;5090941;28;20256;-68
2022/03/20 01:44:34;;;;;;;24.17;12.33;;;;;6.00;102665.00;;;;5095289;28;20333;-67
2022/03/20 01:47:21;;;;;;;22.37;12.23;;;;;6.00;102674.00;;;;5101816;28;20227;-68
2022/03/20 01:50:09;;;;;;;21.20;12.13;;;;;6.00;102677.00;;;;5100771;28;20226;-68
2022/03/20 01:52:57;;;;;;;22.50;12.60;;;;;5.90;102668.00;;;;5100615;28;20332;-68
2022/03/20 01:55:43;;;;;;;27.50;12.80;;;;;5.80;102674.00;;;;5090499;28;20241;-67
2022/03/20 01:58:29;;;;;;;22.37;12.20;;;;;5.80;102660.00;;;;5100448;28;20238;-63
2022/03/20 02:01:16;;;;;;;23.97;12.23;;;;;6.00;102669.00;;;;5103464;28;20389;-67
2022/03/20 02:04:02;;;;;;;23.60;12.00;;;;;5.80;102657.00;;;;5100952;28;20230;-67
2022/03/20 02:06:50;;;;;;;21.90;11.57;;;;;5.90;102664.00;;;;5094556;28;20775;-67
2022/03/20 02:09:37;;;;;;;22.10;11.80;;;;;5.80;102654.00;;;;5103420;28;20310;-68
2022/03/20 02:12:24;;;;;;;23.43;11.13;;;;;5.70;102639.00;;;;5084515;28;20926;-68
2022/03/20 02:15:13;;;;;;;25.63;12.27;;;;;5.60;102633.00;;;;5089771;28;20235;-67
2022/03/20 02:18:00;;;;;;;25.03;12.43;;;;;5.60;102625.00;;;;5095356;28;20292;-67
2022/03/20 02:20:47;;;;;;;23.73;12.10;;;;;5.60;102616.00;;;;5091844;28;20238;-63
2022/03/20 02:23:38;;;;;;;22.97;10.67;;;;;5.60;102615.00;;;;5091339;28;20238;-67
2022/03/20 02:26:25;;;;;;;23.63;11.60;;;;;5.50;102612.00;;;;5104397;28;20345;-67
2022/03/20 02:29:11;;;;;;;22.70;11.77;;;;;5.40;102611.00;;;;5105344;28;20702;-67
2022/03/20 02:31:59;;;;;;;20.63;10.63;;;;;5.60;102593.00;;;;5107268;28;20343;-67
2022/03/20 02:34:47;;;;;;;26.07;12.03;;;;;5.50;102592.00;;;;5094552;28;20231;-66
2022/03/20 02:37:34;;;;;;;21.50;11.50;;;;;5.50;102588.00;;;;5091250;28;20380;-68
2022/03/20 02:40:23;;;;;;;22.77;11.13;;;;;5.60;102601.00;;;;5106195;28;20276;-70
2022/03/20 02:43:09;;;;;;;20.63;11.43;;;;;5.50;102559.00;;;;5095734;28;20309;-68
2022/03/20 02:45:55;;;;;;;18.53;10.87;;;;;5.50;102582.00;;;;5103799;28;20608;-67
2022/03/20 02:48:42;;;;;;;22.40;11.50;;;;;5.50;102583.00;;;;5089675;28;20317;-69
2022/03/20 02:51:29;;;;;;;24.63;11.60;;;;;5.50;102577.00;;;;5102072;28;20242;-69
2022/03/20 02:54:15;;;;;;;18.07;10.90;;;;;5.50;102570.00;;;;5103160;28;20366;-69
2022/03/20 02:57:08;;;;;;;22.70;12.33;;;;;5.50;102564.00;;;;5091363;28;20238;-70
2022/03/20 02:59:54;;;;;;;24.17;11.70;;;;;5.40;102556.00;;;;5095102;28;20353;-68
2022/03/20 03:02:44;;;;;;;24.30;12.40;;;;;5.40;102563.00;;;;5106536;28;20214;-69
2022/03/20 03:05:32;;;;;;;28.80;12.37;;;;;5.40;102569.00;;;;5096387;28;20302;-69
2022/03/20 03:11:22;;;;;;;28.20;11.17;;;;;5.60;102562.00;;;;5106501;28;20264;-71
2022/03/20 03:17:12;;;;;;;23.03;12.03;;;;;5.70;102560.00;;;;5096474;28;20230;-69
2022/03/20 03:19:58;;;;;;;19.97;10.40;;;;;5.70;102556.00;;;;5096562;28;20270;-68
2022/03/20 03:22:44;;;;;;;19.50;10.97;;;;;5.70;102574.00;;;;5096660;28;20230;-70
2022/03/20 03:25:32;;;;;;;23.20;10.73;;;;;5.60;102552.00;;;;5089022;28;20271;-68
2022/03/20 03:28:18;;;;;;;24.53;11.73;;;;;5.70;102554.00;;;;5105769;28;20277;-69
2022/03/20 03:31:08;;;;;;;18.73;10.57;;;;;5.70;102547.00;;;;5103417;28;20588;-71
2022/03/20 03:36:59;;;;;;;20.03;10.47;;;;;5.70;102538.00;;;;5097001;28;20234;-69
2022/03/20 03:39:46;;;;;;;20.50;11.03;;;;;5.80;102533.00;;;;5090235;28;20225;-69
2022/03/20 03:42:32;;;;;;;20.47;10.90;;;;;5.80;102532.00;;;;5089430;28;20234;-70
2022/03/20 03:45:18;;;;;;;19.67;10.60;;;;;5.80;102532.00;;;;5102197;28;20741;-69
2022/03/20 03:48:06;;;;;;;18.87;9.97;;;;;5.80;102500.00;;;;5103461;28;20752;-69
2022/03/20 03:50:54;;;;;;;23.23;11.07;;;;;5.70;102508.00;;;;5100136;28;20222;-69
2022/03/20 03:53:40;;;;;;;17.27;10.57;;;;;5.70;102504.00;;;;5091326;28;20234;-67
2022/03/20 03:56:26;;;;;;;21.37;10.97;;;;;5.70;102498.00;;;;5101220;28;20217;-67
2022/03/20 03:59:12;;;;;;;18.63;10.10;;;;;5.80;102503.00;;;;5104832;28;20238;-67
2022/03/20 04:02:00;;;;;;;22.67;10.67;;;;;5.80;102480.00;;;;5105527;28;20284;-66
2022/03/20 04:04:48;;;;;;;18.60;9.97;;;;;5.80;102478.00;;;;5093778;28;20323;-70
2022/03/20 04:07:35;;;;;;;23.37;11.00;;;;;5.70;102480.00;;;;5089769;28;20230;-67
2022/03/20 04:10:22;;;;;;;18.97;10.27;;;;;5.60;102477.00;;;;5102107;28;20218;-67
2022/03/20 04:13:08;;;;;;;20.37;10.30;;;;;5.50;102460.00;;;;5104820;28;20230;-67
2022/03/20 04:15:55;;;;;;;18.50;10.20;;;;;5.60;102463.00;;;;5105583;28;20325;-67
2022/03/20 04:18:41;;;;;;;19.93;10.23;;;;;5.60;102467.00;;;;5087174;28;20234;-67
2022/03/20 04:21:30;;;;;;;23.37;10.83;;;;;5.60;102471.00;;;;5097534;28;20234;-69
2022/03/20 04:24:16;;;;;;;19.93;9.97;;;;;5.50;102477.00;;;;5103447;28;20227;-67
2022/03/20 04:27:02;;;;;;;23.00;9.43;;;;;5.50;102465.00;;;;5106576;28;20214;-67
2022/03/20 04:29:49;;;;;;;18.13;9.80;;;;;5.50;102458.00;;;;5094059;27;20230;-70
2022/03/20 04:32:35;;;;;;;20.67;10.77;;;;;5.60;102458.00;;;;5089695;28;20268;-67
2022/03/20 04:35:23;;;;;;;19.50;10.77;;;;;5.50;102449.00;;;;5105074;28;20238;-68
2022/03/20 04:38:11;;;;;;;19.40;10.70;;;;;5.50;102445.00;;;;5102622;27;20238;-69
2022/03/20 04:40:57;;;;;;;17.33;9.63;;;;;5.40;102442.00;;;;5102481;27;20230;-67
2022/03/20 04:43:44;;;;;;;21.50;10.37;;;;;5.40;102447.00;;;;5092271;28;20226;-69
2022/03/20 04:46:30;;;;;;;21.93;10.57;;;;;5.50;102452.00;;;;5105379;28;20353;-68
2022/03/20 04:58:32;;;;;;;18.33;8.80;;;;;5.40;102429.00;;;;5085517;28;20343;-69
2022/03/20 05:01:18;;;;;;;18.57;9.53;;;;;5.40;102430.00;;;;5082110;28;20234;-65
2022/03/20 05:04:05;;;;;;;19.20;8.47;;;;;5.50;102434.00;;;;5106310;28;20242;-66
2022/03/20 05:06:51;;;;;;;19.27;10.07;;;;;5.30;102439.00;;;;5104885;27;20234;-68
2022/03/20 05:15:54;;;;;;;18.00;9.97;;;;;5.40;102422.00;;;;5067831;28;20269;-68
2022/03/20 05:18:40;;;;;;;21.77;10.03;;;;;5.40;102416.00;;;;5062244;28;20247;-68
2022/03/20 05:21:27;;;;;;;24.60;10.07;;;;;5.50;102413.00;;;;5055766;28;20222;-68
2022/03/20 05:24:16;;;;;;;22.67;9.57;;;;;5.40;102417.00;;;;5059390;28;20270;-68
2022/03/20 05:27:02;;;;;;;23.00;9.53;;;;;5.40;102416.00;;;;5078081;28;20238;-69
2022/03/20 05:29:50;;;;;;;20.07;9.97;;;;;5.40;102416.00;;;;5073919;28;20242;-70
2022/03/20 05:32:38;;;;;;;17.13;9.13;;;;;5.40;102414.00;;;;5085751;28;20226;-69
2022/03/20 05:35:25;;;;;;;20.87;9.43;;;;;5.40;102404.00;;;;5074150;28;20240;-69
2022/03/20 05:38:12;;;;;;;18.93;9.53;;;;;5.40;102405.00;;;;5085495;28;20254;-68
2022/03/20 05:43:58;;;;;;;20.37;10.07;;;;;5.40;102424.00;;;;5076625;28;20292;-69
2022/03/20 05:46:48;;;;;;;21.77;10.23;;;;;5.30;102419.00;;;;5086147;28;20277;-67
2022/03/20 05:49:35;;;;;;;17.27;9.93;;;;;5.30;102415.00;;;;5070461;28;20242;-68
2022/03/20 05:52:21;;;;;;;20.83;10.43;;;;;5.20;102416.00;;;;5090152;28;20341;-67
2022/03/20 05:55:09;;;;;;;17.57;10.30;;;;;5.10;102413.00;;;;5085343;28;20227;-67
2022/03/20 05:58:03;;;;;;;24.87;11.60;;;;;5.10;102416.00;;;;5106333;28;20288;-67
2022/03/20 06:00:49;;;;;;;23.17;10.83;;;;;5.00;102407.00;;;;5099150;27;20230;-68
2022/03/20 06:03:37;;;;;;;21.13;10.27;;;;;5.10;102402.00;;;;5093216;28;20234;-68
2022/03/20 06:06:23;;;;;;;15.93;9.70;;;;;4.90;102408.00;;;;5107807;28;20227;-65
2022/03/20 06:09:10;;;;;;;22.67;10.57;;;;;4.90;102399.00;;;;5110076;27;20234;-67
2022/03/20 06:11:57;;;;;;;27.53;9.70;;;;;5.00;102378.00;;;;5130554;28;20271;-73
2022/03/20 06:14:48;;;;;;;19.77;9.20;;;;;4.90;102388.00;;;;5135495;28;20241;-72
2022/03/20 06:17:37;;;;;;;22.87;9.87;;;;;4.90;102378.00;;;;5101625;28;20223;-72
2022/03/20 06:20:26;;;;;;;21.30;10.33;;;;;4.80;102383.00;;;;5113897;28;20268;-72
2022/03/20 06:23:12;;;;;;;19.90;10.10;;;;;4.90;102390.00;;;;5115228;28;20242;-72
2022/03/20 06:26:04;;;;;;;16.87;9.03;;;;;4.90;102390.00;;;;5117591;28;20219;-72
2022/03/20 06:28:51;;;;;;;17.80;9.93;;;;;5.00;102390.00;;;;5107354;28;20218;-73
2022/03/20 06:31:37;;;;;;;24.70;10.27;;;;;5.10;102393.00;;;;5117302;28;20249;-72
2022/03/20 06:34:23;;;;;;;18.53;9.37;;;;;5.00;102384.00;;;;5096593;28;20235;-68
2022/03/20 06:37:11;;;;;;;19.33;9.33;;;;;5.00;102374.00;;;;5104836;27;20229;-67
2022/03/20 06:39:57;;;;;;;19.53;9.43;;;;;5.00;102372.00;;;;5090427;28;20332;-69
2022/03/20 06:42:44;;;;;;;19.83;9.13;;;;;5.10;102382.00;;;;5074315;28;20994;-68
2022/03/20 06:45:30;;;;;;;18.80;9.50;;;;;5.10;102371.00;;;;5083240;28;20227;-68
2022/03/20 06:48:17;;;;;;;17.30;9.77;;;;;5.10;102353.00;;;;5075548;28;20231;-68
2022/03/20 06:51:04;;;;;;;18.33;9.93;;;;;5.10;102367.00;;;;5099056;27;20222;-68
2022/03/20 06:53:52;;;;;;;16.50;9.23;;;;;5.10;102364.00;;;;5101838;28;20242;-67
2022/03/20 06:56:39;;;;;;;19.57;10.07;;;;;5.10;102358.00;;;;5078113;28;20325;-68
2022/03/20 06:59:25;;;;;;;19.73;9.70;;;;;5.20;102364.00;;;;5059781;28;20239;-67
2022/03/20 07:02:11;;;;;;;17.93;9.30;;;;;5.30;102357.00;;;;5068114;28;20231;-68
2022/03/20 07:04:58;;;;;;;17.70;9.63;;;;;5.40;102368.00;;;;5085650;28;20239;-67
2022/03/20 07:07:44;;;;;;;16.07;9.20;;;;;5.50;102390.00;;;;5081716;28;20438;-69
2022/03/20 07:10:32;;;;;;;16.80;9.33;;;;;5.60;102392.00;;;;5083659;28;20601;-68
2022/03/20 07:16:29;;;;;;;18.50;9.30;;;;;5.80;102392.00;;;;5066266;28;20718;-71
2022/03/20 07:19:16;;;;;;;22.87;8.80;;;;;5.80;102391.00;;;;5070504;28;20243;-68
2022/03/20 07:22:05;;;;;;;16.27;8.60;;;;;5.90;102397.00;;;;5055889;28;20228;-69
2022/03/20 07:24:51;;;;;;;20.73;10.03;;;;;5.90;102393.00;;;;5059781;28;20310;-69
2022/03/20 07:30:42;;;;;;;21.50;9.77;;;;;6.00;102399.00;;;;5087438;27;20222;-69
2022/03/20 07:33:28;;;;;;;17.60;10.10;;;;;6.20;102378.00;;;;5066159;28;20258;-69
2022/03/20 07:36:14;;;;;;;20.60;10.20;;;;;6.30;102381.00;;;;5062504;28;20228;-70
2022/03/20 07:39:01;;;;;;;19.27;9.67;;;;;6.30;102378.00;;;;5059587;28;20889;-69
2022/03/20 07:41:47;;;;;;;23.73;10.80;;;;;6.30;102386.00;;;;5056602;28;20232;-69
2022/03/20 07:44:36;;;;;;;24.60;9.67;;;;;6.40;102374.00;;;;5074559;28;20238;-70
2022/03/20 07:47:24;;;;;;;18.27;10.27;;;;;6.30;102366.00;;;;5082451;28;20309;-70
2022/03/20 07:50:11;;;;;;;21.40;11.53;;;;;6.30;102363.00;;;;5061899;28;20282;-70
2022/03/20 07:52:59;;;;;;;19.20;10.67;;;;;6.40;102360.00;;;;5054887;28;20285;-68
2022/03/20 07:55:45;;;;;;;21.40;10.63;;;;;6.60;102347.00;;;;5070899;28;20757;-67
2022/03/20 07:58:32;;;;;;;21.43;10.23;;;;;6.70;102351.00;;;;5076595;28;20414;-68
2022/03/20 08:01:19;;;;;;;20.07;11.20;;;;;6.80;102349.00;;;;5073876;28;20236;-70
2022/03/20 08:04:08;;;;;;;17.50;10.07;;;;;6.80;102338.00;;;;5078953;28;20287;-71
2022/03/20 08:06:55;;;;;;;20.13;10.37;;;;;6.70;102334.00;;;;5085181;28;20602;-71
2022/03/20 08:09:41;;;;;;;20.40;11.20;;;;;6.80;102333.00;;;;5060537;28;20231;-71
2022/03/20 08:12:27;;;;;;;21.93;10.63;;;;;6.90;102327.00;;;;5084457;28;20230;-70
2022/03/20 08:15:18;;;;;;;20.53;11.17;;;;;6.80;102318.00;;;;5079016;28;20235;-70
2022/03/20 08:18:07;;;;;;;21.43;10.90;;;;;6.70;102316.00;;;;5072539;28;20227;-70
2022/03/20 08:20:54;;;;;;;21.00;10.80;;;;;6.70;102306.00;;;;5076269;28;20252;-68
2022/03/20 08:23:40;;;;;;;21.70;12.03;;;;;6.50;102307.00;;;;5070379;28;20742;-71
2022/03/20 08:26:27;;;;;;;17.23;10.37;;;;;6.50;102300.00;;;;5085001;28;20912;-70
2022/03/20 08:29:14;;;;;;;22.20;10.60;;;;;6.50;102295.00;;;;5084108;28;20606;-69
2022/03/20 08:32:00;;;;;;;20.70;11.47;;;;;6.70;102296.00;;;;5078437;28;20234;-66
2022/03/20 08:34:48;;;;;;;22.93;11.73;;;;;6.70;102287.00;;;;5071766;28;20921;-70
2022/03/20 08:37:35;;;;;;;22.03;11.17;;;;;6.80;102288.00;;;;5071069;28;20230;-69
2022/03/20 08:40:23;;;;;;;21.77;12.07;;;;;6.80;102274.00;;;;5082220;28;20921;-69
2022/03/20 08:43:15;;;;;;;23.47;11.40;;;;;6.90;102267.00;;;;5096720;28;20235;-71
2022/03/20 08:46:02;;;;;;;22.33;11.43;;;;;7.10;102254.00;;;;5073237;28;20247;-69
2022/03/20 08:48:48;;;;;;;21.80;11.60;;;;;7.20;102260.00;;;;5079758;28;20227;-69
2022/03/20 08:51:38;;;;;;;27.67;12.63;;;;;7.20;102245.00;;;;5066090;28;20234;-69
2022/03/20 08:54:24;;;;;;;23.60;12.33;;;;;7.30;102253.00;;;;5082120;28;20301;-70
2022/03/20 08:57:10;;;;;;;23.97;11.53;;;;;7.50;102257.00;;;;5080592;28;20705;-70
2022/03/20 08:59:56;;;;;;;24.20;11.27;;;;;7.60;102261.00;;;;5082814;28;20379;-71
2022/03/20 09:02:43;;;;;;;27.20;11.87;;;;;7.60;102249.00;;;;5066600;28;20223;-70
2022/03/20 09:05:29;;;;;;;24.97;12.70;;;;;7.70;102248.00;;;;5048574;28;20937;-71
2022/03/20 09:08:17;;;;;;;26.00;12.83;;;;;7.70;102224.00;;;;5055932;28;20334;-69
2022/03/20 09:11:03;;;;;;;26.77;12.57;;;;;7.70;102234.00;;;;5053856;28;20224;-71
2022/03/20 09:13:49;;;;;;;23.67;12.27;;;;;7.90;102205.00;;;;5052903;28;20317;-72
2022/03/20 09:19:39;;;;;;;25.70;12.37;;;;;8.40;102198.00;;;;5090944;28;20278;-71
2022/03/20 09:22:26;;;;;;;23.97;12.67;;;;;8.50;102190.00;;;;5095969;28;20226;-72
2022/03/20 09:25:14;;;;;;;26.63;13.23;;;;;8.80;102188.00;;;;5098763;28;20231;-71
2022/03/20 09:28:00;;;;;;;29.27;13.60;;;;;8.80;102178.00;;;;5108844;27;20272;-72
2022/03/20 09:30:48;;;;;;;26.37;12.87;;;;;8.80;102176.00;;;;5096153;27;20250;-71
2022/03/20 09:33:35;;;;;;;23.27;12.60;;;;;8.80;102192.00;;;;5092306;27;20234;-72
2022/03/20 09:36:21;;;;;;;24.50;12.73;;;;;9.00;102195.00;;;;5108332;27;20729;-70
2022/03/20 09:39:08;;;;;;;24.63;13.33;;;;;9.10;102198.00;;;;5109039;27;20220;-70
2022/03/20 09:41:57;;;;;;;25.77;13.70;;;;;9.00;102208.00;;;;5105653;27;20235;-68
2022/03/20 09:44:43;;;;;;;22.30;12.53;;;;;9.00;102209.00;;;;5070263;28;20594;-71
2022/03/20 09:47:29;;;;;;;30.80;14.17;;;;;8.90;102209.00;;;;5090124;28;20231;-69
2022/03/20 09:50:16;;;;;;;26.23;14.13;;;;;9.00;102224.00;;;;5083498;28;20231;-68
2022/03/20 09:53:02;;;;;;;24.37;13.97;;;;;9.00;102219.00;;;;5100772;28;20224;-69
2022/03/20 09:55:49;;;;;;;26.23;13.00;;;;;9.10;102205.00;;;;5094987;28;20295;-69
2022/03/20 09:58:36;;;;;;;25.80;14.43;;;;;9.10;102210.00;;;;5071809;28;20227;-70
2022/03/20 10:01:23;;;;;;;24.80;12.37;;;;;9.30;102208.00;;;;5084716;28;20235;-70
2022/03/20 10:04:12;;;;;;;25.63;14.07;;;;;9.50;102210.00;;;;5066943;28;20228;-74
2022/03/20 10:06:59;;;;;;;28.03;14.20;;;;;9.60;102204.00;;;;5089646;28;20230;-72
2022/03/20 10:10:06;;;;;;;28.30;14.27;;;;;9.50;102211.00;;;;5087962;27;20228;-73
2022/03/20 10:12:56;;;;;;;25.87;14.50;;;;;9.70;102207.00;;;;5077470;28;20230;-72
2022/03/20 10:15:45;;;;;;;25.27;13.10;;;;;9.80;102215.00;;;;5082928;28;20283;-73
2022/03/20 10:18:33;;;;;;;28.97;14.20;;;;;10.10;102216.00;;;;5078200;28;20816;-73
2022/03/20 10:21:19;;;;;;;27.87;14.83;;;;;10.30;102208.00;;;;5070136;28;20234;-73
2022/03/20 10:24:15;;;;;;;28.50;14.90;;;;;10.50;102222.00;;;;5074221;28;20444;-71
2022/03/20 10:27:08;;;;;;;31.33;15.10;;;;;10.60;102221.00;;;;5079174;28;20298;-74
2022/03/20 10:29:56;;;;;;;24.33;13.97;;;;;10.80;102210.00;;;;5072608;28;20232;-73
2022/03/20 10:32:50;;;;;;;28.23;15.53;;;;;10.80;102204.00;;;;5065390;28;20251;-70
2022/03/20 10:35:39;;;;;;;30.23;15.20;;;;;11.00;102189.00;;;;5080044;28;20705;-70
2022/03/20 10:38:36;;;;;;;27.63;15.23;;;;;11.00;102195.00;;;;5086903;28;20923;-70
2022/03/20 10:41:25;;;;;;;29.67;15.43;;;;;11.00;102186.00;;;;5080618;28;20255;-72
2022/03/20 10:44:14;;;;;;;28.97;15.23;;;;;11.10;102189.00;;;;5094391;28;20232;-71
2022/03/20 10:47:09;;;;;;;25.47;15.57;;;;;11.10;102191.00;;;;5082244;28;20620;-73
2022/03/20 10:50:05;;;;;;;29.17;14.97;;;;;11.10;102187.00;;;;5060798;28;20677;-72
2022/03/20 10:53:07;;;;;;;27.93;15.47;;;;;11.20;102182.00;;;;5055724;28;20277;-72
2022/03/20 10:55:57;;;;;;;28.43;15.60;;;;;11.40;102186.00;;;;5051068;28;20648;-73
2022/03/20 10:58:45;;;;;;;32.33;15.13;;;;;11.30;102184.00;;;;5070983;28;20227;-74
2022/03/20 11:01:35;;;;;;;31.97;15.63;;;;;11.40;102177.00;;;;5078777;28;20235;-70
2022/03/20 11:04:23;;;;;;;29.53;15.33;;;;;11.20;102182.00;;;;5050761;28;20237;-71
2022/03/20 11:07:16;;;;;;;32.10;16.03;;;;;11.20;102173.00;;;;5069313;28;20223;-72
2022/03/20 11:10:09;;;;;;;33.17;16.33;;;;;11.00;102150.00;;;;5059786;28;20306;-72
2022/03/20 11:12:57;;;;;;;32.70;16.17;;;;;10.90;102168.00;;;;5049287;28;20290;-71
2022/03/20 11:15:45;;;;;;;31.80;15.93;;;;;10.90;102151.00;;;;5052633;28;20426;-76
2022/03/20 11:18:34;;;;;;;35.07;17.23;;;;;10.90;102147.00;;;;5060783;28;20228;-72
2022/03/20 11:21:23;;;;;;;30.83;15.93;;;;;11.10;102142.00;;;;5049021;28;20264;-73
2022/03/20 11:24:12;;;;;;;32.30;15.90;;;;;11.10;102144.00;;;;5072234;28;20254;-71
2022/03/20 11:27:01;;;;;;;26.23;14.87;;;;;11.00;102145.00;;;;5075934;28;20251;-72
2022/03/20 11:29:50;;;;;;;29.57;14.67;;;;;11.30;102141.00;;;;5076409;28;20234;-74
2022/03/20 11:32:38;;;;;;;29.63;15.77;;;;;11.50;102146.00;;;;5078275;28;20231;-72
2022/03/20 11:35:27;;;;;;;32.70;17.00;;;;;11.70;102139.00;;;;5102030;28;20355;-72
2022/03/20 11:38:17;;;;;;;34.17;17.27;;;;;11.90;102136.00;;;;5103613;28;20471;-72
2022/03/20 11:41:14;;;;;;;28.43;15.90;;;;;11.80;102131.00;;;;5094881;28;20242;-69
2022/03/20 11:44:15;;;;;;;30.80;16.17;;;;;12.00;102141.00;;;;5065887;28;20228;-75
2022/03/20 11:47:27;;;;;;;32.33;17.37;;;;;12.20;102141.00;;;;5070275;28;20281;-72
2022/03/20 11:50:19;;;;;;;35.53;17.47;;;;;12.00;102152.00;;;;5060990;28;20262;-70
2022/03/20 11:53:06;;;;;;;29.23;15.93;;;;;12.20;102141.00;;;;5052402;28;20220;-70
2022/03/20 11:55:53;;;;;;;31.37;16.67;;;;;12.10;102127.00;;;;5051737;28;20742;-70
2022/03/20 11:58:41;;;;;;;30.27;15.50;;;;;12.10;102139.00;;;;5055625;28;20259;-69
2022/03/20 12:01:28;;;;;;;31.03;16.70;;;;;12.30;102120.00;;;;5076402;28;20236;-70
2022/03/20 12:04:21;;;;;;;31.03;16.40;;;;;12.20;102110.00;;;;5058825;28;20751;-70
2022/03/20 12:07:20;;;;;;;31.33;16.40;;;;;12.50;102114.00;;;;5074749;28;20714;-71
2022/03/20 12:10:23;;;;;;;28.70;16.80;;;;;12.30;102088.00;;;;5066150;28;20231;-69
2022/03/20 12:13:17;;;;;;;36.23;18.03;;;;;12.40;102111.00;;;;5076644;28;20245;-70
2022/03/20 12:16:05;;;;;;;30.63;16.50;;;;;12.30;102120.00;;;;5085119;28;20297;-70
2022/03/20 12:19:08;;;;;;;33.40;17.53;;;;;12.30;102106.00;;;;5048384;28;20275;-69
2022/03/20 12:21:58;;;;;;;33.60;16.63;;;;;12.30;102099.00;;;;5053097;28;20383;-71
2022/03/20 12:24:51;;;;;;;31.97;16.90;;;;;12.40;102094.00;;;;5078435;28;20235;-70
2022/03/20 12:27:45;;;;;;;36.57;18.03;;;;;12.30;102092.00;;;;5075596;28;20616;-69
2022/03/20 12:30:36;;;;;;;32.40;17.63;;;;;12.60;102092.00;;;;5104127;28;20222;-70
2022/03/20 12:33:25;;;;;;;29.83;17.00;;;;;12.40;102092.00;;;;5104883;28;20238;-66
2022/03/20 12:36:29;;;;;;;35.07;17.20;;;;;12.40;102091.00;;;;5104621;28;20724;-71
2022/03/20 12:39:49;;;;;;;35.63;16.67;;;;;12.40;102096.00;;;;5085141;28;20312;-72
2022/03/20 12:42:38;;;;;;;33.20;17.23;;;;;12.50;102102.00;;;;5068359;28;20231;-71
2022/03/20 12:45:26;;;;;;;30.53;16.93;;;;;12.40;102097.00;;;;5084588;28;20302;-70
2022/03/20 12:48:14;;;;;;;31.10;16.43;;;;;12.50;102099.00;;;;5081554;28;20226;-70
2022/03/20 12:51:07;;;;;;;33.63;17.03;;;;;12.60;102099.00;;;;5084400;28;20378;-69
2022/03/20 12:53:54;;;;;;;30.13;17.57;;;;;12.50;102092.00;;;;5078368;28;20243;-68
2022/03/20 12:56:55;;;;;;;30.07;16.30;;;;;12.50;102090.00;;;;5079895;28;20223;-69
2022/03/20 12:59:42;;;;;;;29.90;16.17;;;;;12.60;102093.00;;;;5069448;28;20223;-68
2022/03/20 13:02:28;;;;;;;30.40;17.10;;;;;12.60;102102.00;;;;5061316;28;20232;-71
2022/03/20 13:05:14;;;;;;;34.60;17.37;;;;;12.40;102093.00;;;;5058654;28;20232;-72
2022/03/20 13:08:02;;;;;;;29.97;16.13;;;;;12.50;102097.00;;;;5059083;28;20223;-71
2022/03/20 13:10:50;;;;;;;36.37;18.30;;;;;12.60;102105.00;;;;5053093;28;20988;-69
2022/03/20 13:13:37;;;;;;;31.97;17.80;;;;;12.60;102089.00;;;;5054984;28;20286;-68
2022/03/20 13:16:26;;;;;;;32.87;17.13;;;;;12.70;102089.00;;;;5055564;28;20227;-69
2022/03/20 13:19:13;;;;;;;31.57;17.80;;;;;12.60;102064.00;;;;5054477;28;20220;-70
2022/03/20 13:22:04;;;;;;;39.70;17.90;;;;;12.50;102078.00;;;;5053165;28;20723;-69
2022/03/20 13:24:52;;;;;;;29.87;16.47;;;;;12.40;102068.00;;;;5071620;28;21029;-71
2022/03/20 13:27:39;;;;;;;35.40;18.10;;;;;12.30;102068.00;;;;5083987;28;20385;-69
2022/03/20 13:30:34;;;;;;;37.37;17.83;;;;;12.50;102077.00;;;;5083626;28;20796;-70
2022/03/20 13:33:28;;;;;;;33.40;17.77;;;;;12.30;102062.00;;;;5083802;28;20235;-69
2022/03/20 13:36:14;;;;;;;39.67;18.20;;;;;12.30;102067.00;;;;5081239;28;20357;-68
2022/03/20 13:39:02;;;;;;;34.30;17.43;;;;;12.30;102052.00;;;;5077358;28;20227;-73
2022/03/20 13:41:50;;;;;;;34.83;18.43;;;;;12.30;102049.00;;;;5066455;28;20239;-68
2022/03/20 13:44:38;;;;;;;32.50;18.37;;;;;12.40;102051.00;;;;5063850;28;20363;-70
2022/03/20 13:47:26;;;;;;;34.33;17.43;;;;;12.60;102055.00;;;;5074064;28;20228;-69
2022/03/20 13:50:14;;;;;;;32.80;17.90;;;;;12.30;102050.00;;;;5103454;28;20971;-69
2022/03/20 13:53:01;;;;;;;37.17;18.77;;;;;12.20;102041.00;;;;5104119;28;20759;-68
2022/03/20 13:55:49;;;;;;;33.77;19.17;;;;;12.20;102048.00;;;;5086312;28;20227;-69
2022/03/20 13:58:37;;;;;;;39.10;19.27;;;;;12.10;102055.00;;;;5087354;28;20824;-69
2022/03/20 14:01:23;;;;;;;34.60;18.40;;;;;12.00;102060.00;;;;5101352;28;20223;-69
2022/03/20 14:04:13;;;;;;;31.77;17.50;;;;;12.00;102064.00;;;;5101666;28;20323;-70
2022/03/20 14:07:01;;;;;;;33.53;17.73;;;;;11.90;102065.00;;;;5101803;28;20238;-69
2022/03/20 14:09:49;;;;;;;30.37;15.83;;;;;11.90;102064.00;;;;5090478;28;20588;-67
2022/03/20 14:12:35;;;;;;;32.07;17.50;;;;;11.80;102066.00;;;;5104827;28;20231;-69
2022/03/20 14:15:25;;;;;;;36.40;18.50;;;;;11.70;102063.00;;;;5107792;27;20660;-70
2022/03/20 14:18:16;;;;;;;36.17;17.13;;;;;11.70;102067.00;;;;5101763;28;20278;-69